Terminal Aerodrome Forecast
Issued by NWS

Home | Current Version | Previous Version | Text Only | Print | Product List | Glossary On
Versions: 1 2 3 4 5 6 7 8 9 10 11 12 13
000
FTUS43 KIND 171138
TAFHUF
TAF
KHUF 171138Z 1712/1812 20007KT P6SM OVC120
     FM171600 21007KT P6SM -RA OVC090
     FM171900 21007KT P6SM VCSH OVC045
     FM180300 20006KT P6SM OVC008
     FM180600 21006KT 4SM -DZ BR BKN008
     FM180900 22006KT 3SM -DZ BR OVC004=

USA.gov is the U.S. government's official web portal to all federal, state and local government web resources and services.